sensor_id;sensor_type;location;lat;lon;timestamp;noise_LAeq;noise_LA_min;noise_LA_max;noise_LA01;noise_LA95
71628;Laerm;59477;52.374;9.916;2023-10-19T00:00:17;49.75;42.24;72.11;;
71628;Laerm;59477;52.374;9.916;2023-10-19T00:02:39;47.71;42.01;67.01;;
71628;Laerm;59477;52.374;9.916;2023-10-19T00:04:57;49.33;42.44;65.30;;
71628;Laerm;59477;52.374;9.916;2023-10-19T00:07:16;48.99;42.80;67.88;;
71628;Laerm;59477;52.374;9.916;2023-10-19T00:09:36;47.33;42.19;64.25;;
71628;Laerm;59477;52.374;9.916;2023-10-19T00:11:56;46.93;42.01;62.88;;
71628;Laerm;59477;52.374;9.916;2023-10-19T00:14:15;48.53;41.59;67.74;;
71628;Laerm;59477;52.374;9.916;2023-10-19T00:16:37;46.53;40.64;60.60;;
71628;Laerm;59477;52.374;9.916;2023-10-19T00:18:56;48.37;41.21;65.08;;
71628;Laerm;59477;52.374;9.916;2023-10-19T00:21:18;54.86;40.58;77.03;;
71628;Laerm;59477;52.374;9.916;2023-10-19T00:23:37;48.66;41.71;63.31;;
71628;Laerm;59477;52.374;9.916;2023-10-19T00:25:59;46.98;42.07;63.62;;
71628;Laerm;59477;52.374;9.916;2023-10-19T00:28:18;46.26;41.99;62.34;;
71628;Laerm;59477;52.374;9.916;2023-10-19T00:30:37;47.08;41.73;67.54;;
71628;Laerm;59477;52.374;9.916;2023-10-19T00:32:56;46.60;40.95;64.00;;
71628;Laerm;59477;52.374;9.916;2023-10-19T00:35:16;48.97;42.88;72.22;;
71628;Laerm;59477;52.374;9.916;2023-10-19T00:37:55;49.24;43.50;68.68;;
71628;Laerm;59477;52.374;9.916;2023-10-19T00:40:17;51.12;43.16;66.11;;
71628;Laerm;59477;52.374;9.916;2023-10-19T00:42:52;50.03;44.62;72.20;;
71628;Laerm;59477;52.374;9.916;2023-10-19T00:45:14;48.45;43.70;68.35;;
71628;Laerm;59477;52.374;9.916;2023-10-19T00:47:34;52.45;42.65;65.98;;
71628;Laerm;59477;52.374;9.916;2023-10-19T00:49:58;47.57;42.85;67.84;;
71628;Laerm;59477;52.374;9.916;2023-10-19T00:52:21;57.06;47.46;81.03;;
71628;Laerm;59477;52.374;9.916;2023-10-19T00:54:42;57.51;50.07;79.22;;
71628;Laerm;59477;52.374;9.916;2023-10-19T00:57:05;57.56;50.42;79.80;;
71628;Laerm;59477;52.374;9.916;2023-10-19T00:59:29;57.67;51.02;80.33;;
71628;Laerm;59477;52.374;9.916;2023-10-19T01:01:54;58.63;51.58;80.02;;
71628;Laerm;59477;52.374;9.916;2023-10-19T01:04:14;59.06;52.17;82.76;;
71628;Laerm;59477;52.374;9.916;2023-10-19T01:06:42;60.06;52.52;81.00;;
71628;Laerm;59477;52.374;9.916;2023-10-19T01:09:18;58.00;51.16;78.27;;
71628;Laerm;59477;52.374;9.916;2023-10-19T01:11:39;55.03;48.02;72.59;;
71628;Laerm;59477;52.374;9.916;2023-10-19T01:13:57;55.86;47.85;79.42;;
71628;Laerm;59477;52.374;9.916;2023-10-19T01:16:17;56.29;48.54;78.27;;
71628;Laerm;59477;52.374;9.916;2023-10-19T01:18:39;53.03;47.30;74.11;;
71628;Laerm;59477;52.374;9.916;2023-10-19T01:21:01;53.02;46.51;73.05;;
71628;Laerm;59477;52.374;9.916;2023-10-19T01:23:25;54.12;47.31;79.52;;
71628;Laerm;59477;52.374;9.916;2023-10-19T01:25:45;55.45;48.69;81.29;;
71628;Laerm;59477;52.374;9.916;2023-10-19T01:28:13;58.79;51.38;81.28;;
71628;Laerm;59477;52.374;9.916;2023-10-19T01:30:36;57.23;51.02;78.94;;
71628;Laerm;59477;52.374;9.916;2023-10-19T01:32:55;56.25;49.84;77.10;;
71628;Laerm;59477;52.374;9.916;2023-10-19T01:35:16;55.88;49.96;80.35;;
71628;Laerm;59477;52.374;9.916;2023-10-19T01:37:35;57.37;50.92;78.33;;
71628;Laerm;59477;52.374;9.916;2023-10-19T01:39:56;56.87;50.78;79.84;;
71628;Laerm;59477;52.374;9.916;2023-10-19T01:42:15;56.84;49.81;84.68;;
71628;Laerm;59477;52.374;9.916;2023-10-19T01:44:36;57.48;49.33;84.67;;
71628;Laerm;59477;52.374;9.916;2023-10-19T01:46:55;56.07;48.98;80.44;;
71628;Laerm;59477;52.374;9.916;2023-10-19T01:49:14;54.09;48.04;79.16;;
71628;Laerm;59477;52.374;9.916;2023-10-19T01:51:37;55.21;49.84;78.02;;
71628;Laerm;59477;52.374;9.916;2023-10-19T01:54:01;55.46;48.97;72.54;;
71628;Laerm;59477;52.374;9.916;2023-10-19T01:56:20;57.63;49.48;79.44;;
71628;Laerm;59477;52.374;9.916;2023-10-19T01:58:41;58.09;52.06;78.79;;
71628;Laerm;59477;52.374;9.916;2023-10-19T02:01:00;57.61;51.53;81.43;;
71628;Laerm;59477;52.374;9.916;2023-10-19T02:03:21;61.12;52.90;85.64;;
71628;Laerm;59477;52.374;9.916;2023-10-19T02:05:41;60.34;52.60;85.34;;
71628;Laerm;59477;52.374;9.916;2023-10-19T02:08:01;58.99;52.43;80.07;;
71628;Laerm;59477;52.374;9.916;2023-10-19T02:10:21;60.06;52.65;82.50;;
71628;Laerm;59477;52.374;9.916;2023-10-19T02:12:41;58.48;52.22;80.23;;
71628;Laerm;59477;52.374;9.916;2023-10-19T02:15:00;60.47;53.03;84.57;;
71628;Laerm;59477;52.374;9.916;2023-10-19T02:17:19;58.32;51.90;77.04;;
71628;Laerm;59477;52.374;9.916;2023-10-19T02:19:38;58.35;51.80;82.16;;
71628;Laerm;59477;52.374;9.916;2023-10-19T02:21:58;58.65;52.49;80.87;;
71628;Laerm;59477;52.374;9.916;2023-10-19T02:24:18;58.78;51.68;79.47;;
71628;Laerm;59477;52.374;9.916;2023-10-19T02:26:37;57.33;50.23;78.29;;
71628;Laerm;59477;52.374;9.916;2023-10-19T02:28:56;55.65;47.52;79.56;;
71628;Laerm;59477;52.374;9.916;2023-10-19T02:31:16;52.09;46.96;75.59;;
71628;Laerm;59477;52.374;9.916;2023-10-19T02:33:41;52.72;46.39;74.57;;
71628;Laerm;59477;52.374;9.916;2023-10-19T02:36:04;51.16;46.45;64.48;;
71628;Laerm;59477;52.374;9.916;2023-10-19T02:38:23;52.00;46.16;68.57;;
71628;Laerm;59477;52.374;9.916;2023-10-19T02:40:42;49.75;45.81;65.58;;
71628;Laerm;59477;52.374;9.916;2023-10-19T02:43:01;50.12;44.91;67.40;;
71628;Laerm;59477;52.374;9.916;2023-10-19T02:45:22;50.79;45.79;65.20;;
71628;Laerm;59477;52.374;9.916;2023-10-19T02:47:42;48.58;44.48;63.42;;
71628;Laerm;59477;52.374;9.916;2023-10-19T02:50:02;49.19;44.30;58.51;;
71628;Laerm;59477;52.374;9.916;2023-10-19T02:52:28;48.06;43.56;56.52;;
71628;Laerm;59477;52.374;9.916;2023-10-19T02:54:47;47.63;44.33;58.49;;
71628;Laerm;59477;52.374;9.916;2023-10-19T02:57:06;47.73;44.49;63.14;;
71628;Laerm;59477;52.374;9.916;2023-10-19T02:59:27;49.89;44.91;60.85;;
71628;Laerm;59477;52.374;9.916;2023-10-19T03:01:51;54.28;48.06;82.09;;
71628;Laerm;59477;52.374;9.916;2023-10-19T03:04:11;51.34;46.31;67.82;;
71628;Laerm;59477;52.374;9.916;2023-10-19T03:06:33;53.22;43.78;66.55;;
71628;Laerm;59477;52.374;9.916;2023-10-19T03:08:52;48.71;43.86;68.83;;
71628;Laerm;59477;52.374;9.916;2023-10-19T03:11:19;50.31;45.23;76.46;;
71628;Laerm;59477;52.374;9.916;2023-10-19T03:13:39;55.78;44.72;68.94;;
71628;Laerm;59477;52.374;9.916;2023-10-19T03:15:59;48.93;43.56;71.81;;
71628;Laerm;59477;52.374;9.916;2023-10-19T03:18:26;50.55;44.50;65.18;;
71628;Laerm;59477;52.374;9.916;2023-10-19T03:20:47;50.33;44.88;68.62;;
71628;Laerm;59477;52.374;9.916;2023-10-19T03:23:09;52.30;45.78;67.96;;
71628;Laerm;59477;52.374;9.916;2023-10-19T03:25:29;54.92;49.18;77.03;;
71628;Laerm;59477;52.374;9.916;2023-10-19T03:28:08;52.81;47.44;71.42;;
71628;Laerm;59477;52.374;9.916;2023-10-19T03:30:30;50.54;45.80;69.65;;
71628;Laerm;59477;52.374;9.916;2023-10-19T03:32:49;53.83;46.86;65.61;;
71628;Laerm;59477;52.374;9.916;2023-10-19T03:35:08;52.81;48.25;71.65;;
71628;Laerm;59477;52.374;9.916;2023-10-19T03:37:27;51.06;46.41;62.75;;
71628;Laerm;59477;52.374;9.916;2023-10-19T03:39:48;50.14;46.60;64.03;;
71628;Laerm;59477;52.374;9.916;2023-10-19T03:42:07;50.68;46.71;63.78;;
71628;Laerm;59477;52.374;9.916;2023-10-19T03:44:35;51.19;46.58;64.64;;
71628;Laerm;59477;52.374;9.916;2023-10-19T03:47:23;51.40;45.96;75.61;;
71628;Laerm;59477;52.374;9.916;2023-10-19T03:49:52;52.33;45.63;70.28;;
71628;Laerm;59477;52.374;9.916;2023-10-19T03:52:12;48.87;45.29;56.92;;
71628;Laerm;59477;52.374;9.916;2023-10-19T03:54:31;50.95;45.12;63.81;;
71628;Laerm;59477;52.374;9.916;2023-10-19T03:56:52;50.28;46.10;61.29;;
71628;Laerm;59477;52.374;9.916;2023-10-19T03:59:11;48.77;43.98;55.73;;
71628;Laerm;59477;52.374;9.916;2023-10-19T04:01:30;49.61;45.05;57.06;;
71628;Laerm;59477;52.374;9.916;2023-10-19T04:03:50;50.05;45.59;64.96;;
71628;Laerm;59477;52.374;9.916;2023-10-19T04:06:11;50.88;45.89;65.19;;
71628;Laerm;59477;52.374;9.916;2023-10-19T04:08:33;50.33;45.55;59.68;;
71628;Laerm;59477;52.374;9.916;2023-10-19T04:10:55;54.18;46.47;65.04;;
71628;Laerm;59477;52.374;9.916;2023-10-19T04:13:37;52.91;46.20;71.07;;
71628;Laerm;59477;52.374;9.916;2023-10-19T04:15:56;57.97;45.96;85.10;;
71628;Laerm;59477;52.374;9.916;2023-10-19T04:18:15;56.26;51.41;73.92;;
71628;Laerm;59477;52.374;9.916;2023-10-19T04:20:34;54.07;49.10;73.10;;
71628;Laerm;59477;52.374;9.916;2023-10-19T04:23:03;58.24;47.35;77.09;;
71628;Laerm;59477;52.374;9.916;2023-10-19T04:25:29;52.33;46.05;61.46;;
71628;Laerm;59477;52.374;9.916;2023-10-19T04:27:48;51.66;46.76;66.79;;
71628;Laerm;59477;52.374;9.916;2023-10-19T04:30:08;52.26;46.25;64.67;;
71628;Laerm;59477;52.374;9.916;2023-10-19T04:32:34;50.17;46.38;57.51;;
71628;Laerm;59477;52.374;9.916;2023-10-19T04:34:54;50.67;46.80;63.69;;
71628;Laerm;59477;52.374;9.916;2023-10-19T04:37:13;50.64;46.26;62.36;;
71628;Laerm;59477;52.374;9.916;2023-10-19T04:39:37;52.68;47.67;69.64;;
71628;Laerm;59477;52.374;9.916;2023-10-19T04:41:55;52.54;49.09;64.40;;
71628;Laerm;59477;52.374;9.916;2023-10-19T04:44:14;51.51;46.94;59.70;;
71628;Laerm;59477;52.374;9.916;2023-10-19T04:46:34;54.11;48.48;72.40;;
71628;Laerm;59477;52.374;9.916;2023-10-19T04:48:53;52.73;48.50;65.02;;
71628;Laerm;59477;52.374;9.916;2023-10-19T04:51:12;52.12;48.32;63.94;;
71628;Laerm;59477;52.374;9.916;2023-10-19T04:53:31;52.29;48.18;63.95;;
71628;Laerm;59477;52.374;9.916;2023-10-19T04:55:50;54.67;49.47;68.24;;
71628;Laerm;59477;52.374;9.916;2023-10-19T04:58:10;52.23;48.17;64.36;;
71628;Laerm;59477;52.374;9.916;2023-10-19T05:00:29;52.28;46.73;63.66;;
71628;Laerm;59477;52.374;9.916;2023-10-19T05:02:48;53.79;47.49;77.97;;
71628;Laerm;59477;52.374;9.916;2023-10-19T05:05:08;52.84;48.60;64.71;;
71628;Laerm;59477;52.374;9.916;2023-10-19T05:07:27;53.11;48.38;62.15;;
71628;Laerm;59477;52.374;9.916;2023-10-19T05:09:47;52.45;48.42;68.46;;
71628;Laerm;59477;52.374;9.916;2023-10-19T05:12:06;52.86;48.53;64.78;;
71628;Laerm;59477;52.374;9.916;2023-10-19T05:14:28;53.25;48.13;65.15;;
71628;Laerm;59477;52.374;9.916;2023-10-19T05:16:46;53.30;49.23;60.77;;
71628;Laerm;59477;52.374;9.916;2023-10-19T05:19:06;52.54;48.68;63.96;;
71628;Laerm;59477;52.374;9.916;2023-10-19T05:21:26;52.60;48.29;64.27;;
71628;Laerm;59477;52.374;9.916;2023-10-19T05:23:45;52.55;46.79;66.57;;
71628;Laerm;59477;52.374;9.916;2023-10-19T05:26:04;50.73;46.15;59.35;;
71628;Laerm;59477;52.374;9.916;2023-10-19T05:28:25;51.32;46.87;59.38;;
71628;Laerm;59477;52.374;9.916;2023-10-19T05:30:44;51.72;46.21;64.59;;
71628;Laerm;59477;52.374;9.916;2023-10-19T05:33:03;54.10;46.93;64.89;;
71628;Laerm;59477;52.374;9.916;2023-10-19T05:35:22;52.43;46.34;76.62;;
71628;Laerm;59477;52.374;9.916;2023-10-19T05:37:41;53.11;47.28;72.44;;
71628;Laerm;59477;52.374;9.916;2023-10-19T05:40:00;52.26;47.33;62.23;;
71628;Laerm;59477;52.374;9.916;2023-10-19T05:42:19;51.97;46.11;63.74;;
71628;Laerm;59477;52.374;9.916;2023-10-19T05:44:39;51.16;46.94;61.02;;
71628;Laerm;59477;52.374;9.916;2023-10-19T05:46:58;51.33;45.95;65.90;;
71628;Laerm;59477;52.374;9.916;2023-10-19T05:49:16;50.06;45.82;64.37;;
71628;Laerm;59477;52.374;9.916;2023-10-19T05:51:35;50.93;44.71;76.24;;
71628;Laerm;59477;52.374;9.916;2023-10-19T05:53:55;50.14;44.26;60.28;;
71628;Laerm;59477;52.374;9.916;2023-10-19T05:56:20;52.15;46.21;66.86;;
71628;Laerm;59477;52.374;9.916;2023-10-19T05:58:40;56.16;50.97;68.47;;
71628;Laerm;59477;52.374;9.916;2023-10-19T06:00:59;52.02;47.02;63.50;;
71628;Laerm;59477;52.374;9.916;2023-10-19T06:03:18;49.90;46.38;56.77;;
71628;Laerm;59477;52.374;9.916;2023-10-19T06:05:37;51.09;46.55;64.63;;
71628;Laerm;59477;52.374;9.916;2023-10-19T06:07:56;51.13;46.72;65.60;;
71628;Laerm;59477;52.374;9.916;2023-10-19T06:10:16;51.53;45.90;63.35;;
71628;Laerm;59477;52.374;9.916;2023-10-19T06:12:35;52.72;48.23;67.80;;
71628;Laerm;59477;52.374;9.916;2023-10-19T06:14:56;50.63;45.72;68.91;;
71628;Laerm;59477;52.374;9.916;2023-10-19T06:17:15;50.45;45.66;59.73;;
71628;Laerm;59477;52.374;9.916;2023-10-19T06:19:37;51.45;47.49;62.43;;
71628;Laerm;59477;52.374;9.916;2023-10-19T06:21:57;52.51;47.60;58.62;;
71628;Laerm;59477;52.374;9.916;2023-10-19T06:24:16;51.60;46.24;61.92;;
71628;Laerm;59477;52.374;9.916;2023-10-19T06:26:35;50.29;45.03;61.07;;
71628;Laerm;59477;52.374;9.916;2023-10-19T06:28:55;52.06;45.96;67.91;;
71628;Laerm;59477;52.374;9.916;2023-10-19T06:31:17;53.14;46.03;69.54;;
71628;Laerm;59477;52.374;9.916;2023-10-19T06:33:37;52.37;46.40;63.45;;
71628;Laerm;59477;52.374;9.916;2023-10-19T06:36:00;51.41;46.33;64.31;;
71628;Laerm;59477;52.374;9.916;2023-10-19T06:38:22;53.69;46.75;67.18;;
71628;Laerm;59477;52.374;9.916;2023-10-19T06:40:41;53.02;46.33;65.29;;
71628;Laerm;59477;52.374;9.916;2023-10-19T06:43:01;50.05;45.08;64.58;;
71628;Laerm;59477;52.374;9.916;2023-10-19T06:45:21;51.25;45.44;67.97;;
71628;Laerm;59477;52.374;9.916;2023-10-19T06:47:44;51.95;46.35;69.36;;
71628;Laerm;59477;52.374;9.916;2023-10-19T06:50:04;49.62;45.34;60.41;;
71628;Laerm;59477;52.374;9.916;2023-10-19T06:52:25;52.23;45.90;68.78;;
71628;Laerm;59477;52.374;9.916;2023-10-19T06:54:44;50.10;43.92;60.91;;
71628;Laerm;59477;52.374;9.916;2023-10-19T06:57:03;49.20;45.46;61.49;;
71628;Laerm;59477;52.374;9.916;2023-10-19T06:59:22;49.42;45.19;57.78;;
71628;Laerm;59477;52.374;9.916;2023-10-19T07:01:44;49.99;45.26;67.09;;
71628;Laerm;59477;52.374;9.916;2023-10-19T07:04:05;51.64;45.95;63.60;;
71628;Laerm;59477;52.374;9.916;2023-10-19T07:06:24;49.65;45.87;64.71;;
71628;Laerm;59477;52.374;9.916;2023-10-19T07:08:43;49.82;44.89;59.11;;
71628;Laerm;59477;52.374;9.916;2023-10-19T07:11:02;51.47;45.84;61.96;;
71628;Laerm;59477;52.374;9.916;2023-10-19T07:13:21;50.84;45.23;59.35;;
71628;Laerm;59477;52.374;9.916;2023-10-19T07:15:40;51.19;45.67;66.26;;
71628;Laerm;59477;52.374;9.916;2023-10-19T07:18:00;51.04;44.92;59.73;;
71628;Laerm;59477;52.374;9.916;2023-10-19T07:20:19;49.62;44.75;64.05;;
71628;Laerm;59477;52.374;9.916;2023-10-19T07:22:44;50.26;45.21;63.91;;
71628;Laerm;59477;52.374;9.916;2023-10-19T07:25:06;50.95;46.20;66.44;;
71628;Laerm;59477;52.374;9.916;2023-10-19T07:27:27;49.34;44.42;60.17;;
71628;Laerm;59477;52.374;9.916;2023-10-19T07:29:47;49.15;43.49;60.88;;
71628;Laerm;59477;52.374;9.916;2023-10-19T07:32:06;50.33;44.58;64.22;;
71628;Laerm;59477;52.374;9.916;2023-10-19T07:34:25;51.19;45.21;63.37;;
71628;Laerm;59477;52.374;9.916;2023-10-19T07:36:46;50.45;45.06;70.94;;
71628;Laerm;59477;52.374;9.916;2023-10-19T07:39:06;48.66;44.39;61.36;;
71628;Laerm;59477;52.374;9.916;2023-10-19T07:41:32;52.37;44.71;73.59;;
71628;Laerm;59477;52.374;9.916;2023-10-19T07:43:55;50.20;46.04;66.14;;
71628;Laerm;59477;52.374;9.916;2023-10-19T07:46:20;52.89;47.00;70.79;;
71628;Laerm;59477;52.374;9.916;2023-10-19T07:48:43;50.14;45.11;69.75;;
71628;Laerm;59477;52.374;9.916;2023-10-19T07:51:02;52.00;45.23;62.52;;
71628;Laerm;59477;52.374;9.916;2023-10-19T07:53:21;50.65;44.48;64.07;;
71628;Laerm;59477;52.374;9.916;2023-10-19T07:55:40;48.48;44.34;55.52;;
71628;Laerm;59477;52.374;9.916;2023-10-19T07:58:00;51.97;46.48;60.68;;
71628;Laerm;59477;52.374;9.916;2023-10-19T08:00:21;50.91;46.00;62.94;;
71628;Laerm;59477;52.374;9.916;2023-10-19T08:02:42;49.50;45.39;58.17;;
71628;Laerm;59477;52.374;9.916;2023-10-19T08:05:04;50.33;44.78;68.68;;
71628;Laerm;59477;52.374;9.916;2023-10-19T08:07:25;48.10;44.30;55.39;;
71628;Laerm;59477;52.374;9.916;2023-10-19T08:09:46;49.58;45.22;57.15;;
71628;Laerm;59477;52.374;9.916;2023-10-19T08:12:05;49.21;45.15;67.94;;
71628;Laerm;59477;52.374;9.916;2023-10-19T08:14:25;50.94;46.11;58.91;;
71628;Laerm;59477;52.374;9.916;2023-10-19T08:16:44;49.88;44.41;65.01;;
71628;Laerm;59477;52.374;9.916;2023-10-19T08:19:03;49.12;44.01;64.31;;
71628;Laerm;59477;52.374;9.916;2023-10-19T08:21:23;48.59;43.76;62.36;;
71628;Laerm;59477;52.374;9.916;2023-10-19T08:23:42;48.22;43.53;59.45;;
71628;Laerm;59477;52.374;9.916;2023-10-19T08:26:02;49.70;45.41;59.44;;
71628;Laerm;59477;52.374;9.916;2023-10-19T08:28:22;49.65;45.72;58.94;;
71628;Laerm;59477;52.374;9.916;2023-10-19T08:30:41;49.59;45.01;63.72;;
71628;Laerm;59477;52.374;9.916;2023-10-19T08:33:00;49.42;43.49;67.13;;
71628;Laerm;59477;52.374;9.916;2023-10-19T08:35:21;50.28;45.03;65.39;;
71628;Laerm;59477;52.374;9.916;2023-10-19T08:37:43;48.49;43.64;58.61;;
71628;Laerm;59477;52.374;9.916;2023-10-19T08:40:06;50.18;44.39;66.71;;
71628;Laerm;59477;52.374;9.916;2023-10-19T08:42:25;49.09;44.16;59.15;;
71628;Laerm;59477;52.374;9.916;2023-10-19T08:44:44;49.77;43.25;59.71;;
71628;Laerm;59477;52.374;9.916;2023-10-19T08:47:04;50.50;44.28;70.21;;
71628;Laerm;59477;52.374;9.916;2023-10-19T08:49:24;51.13;44.76;63.58;;
71628;Laerm;59477;52.374;9.916;2023-10-19T08:51:45;51.46;44.71;68.80;;
71628;Laerm;59477;52.374;9.916;2023-10-19T08:54:04;49.47;44.02;66.83;;
71628;Laerm;59477;52.374;9.916;2023-10-19T08:56:24;48.76;43.63;62.49;;
71628;Laerm;59477;52.374;9.916;2023-10-19T08:58:42;51.35;46.24;61.77;;
71628;Laerm;59477;52.374;9.916;2023-10-19T09:01:01;47.88;43.91;55.91;;
71628;Laerm;59477;52.374;9.916;2023-10-19T09:03:28;48.99;44.03;63.29;;
71628;Laerm;59477;52.374;9.916;2023-10-19T09:05:47;49.11;43.22;58.07;;
71628;Laerm;59477;52.374;9.916;2023-10-19T09:08:06;48.69;44.09;61.19;;
71628;Laerm;59477;52.374;9.916;2023-10-19T09:10:26;49.07;44.68;57.48;;
71628;Laerm;59477;52.374;9.916;2023-10-19T09:12:48;50.47;45.05;71.92;;
71628;Laerm;59477;52.374;9.916;2023-10-19T09:15:23;48.08;44.08;59.19;;
71628;Laerm;59477;52.374;9.916;2023-10-19T09:17:42;48.91;44.49;55.57;;
71628;Laerm;59477;52.374;9.916;2023-10-19T09:20:02;49.77;44.51;58.33;;
71628;Laerm;59477;52.374;9.916;2023-10-19T09:22:34;54.58;44.22;69.24;;
71628;Laerm;59477;52.374;9.916;2023-10-19T09:24:55;50.88;43.80;62.31;;
71628;Laerm;59477;52.374;9.916;2023-10-19T09:27:16;47.94;44.12;56.49;;
71628;Laerm;59477;52.374;9.916;2023-10-19T09:29:36;48.54;44.28;56.41;;
71628;Laerm;59477;52.374;9.916;2023-10-19T09:31:55;48.34;43.07;61.31;;
71628;Laerm;59477;52.374;9.916;2023-10-19T09:34:16;50.05;43.66;68.14;;
71628;Laerm;59477;52.374;9.916;2023-10-19T09:36:35;49.75;43.86;61.12;;
71628;Laerm;59477;52.374;9.916;2023-10-19T09:38:55;47.53;43.83;64.16;;
71628;Laerm;59477;52.374;9.916;2023-10-19T09:41:20;49.89;44.35;68.82;;
71628;Laerm;59477;52.374;9.916;2023-10-19T09:43:43;49.33;44.03;64.49;;
71628;Laerm;59477;52.374;9.916;2023-10-19T09:46:06;49.00;43.28;59.05;;
71628;Laerm;59477;52.374;9.916;2023-10-19T09:48:25;48.56;42.64;67.62;;
71628;Laerm;59477;52.374;9.916;2023-10-19T09:50:54;47.47;43.08;65.38;;
71628;Laerm;59477;52.374;9.916;2023-10-19T09:53:14;47.43;42.72;60.07;;
71628;Laerm;59477;52.374;9.916;2023-10-19T09:55:33;49.93;42.56;58.32;;
71628;Laerm;59477;52.374;9.916;2023-10-19T09:57:58;49.11;41.93;63.86;;
71628;Laerm;59477;52.374;9.916;2023-10-19T10:00:20;49.50;42.42;63.51;;
71628;Laerm;59477;52.374;9.916;2023-10-19T10:02:42;50.50;43.17;64.65;;
71628;Laerm;59477;52.374;9.916;2023-10-19T10:05:04;49.80;44.14;62.59;;
71628;Laerm;59477;52.374;9.916;2023-10-19T10:07:24;48.35;42.70;64.06;;
71628;Laerm;59477;52.374;9.916;2023-10-19T10:09:43;50.80;42.39;59.35;;
71628;Laerm;59477;52.374;9.916;2023-10-19T10:12:22;47.84;42.46;59.15;;
71628;Laerm;59477;52.374;9.916;2023-10-19T10:14:52;45.80;41.41;57.79;;
71628;Laerm;59477;52.374;9.916;2023-10-19T10:17:15;45.78;41.32;52.23;;
71628;Laerm;59477;52.374;9.916;2023-10-19T10:19:35;46.96;42.29;60.68;;
71628;Laerm;59477;52.374;9.916;2023-10-19T10:24:43;48.37;42.87;59.54;;
71628;Laerm;59477;52.374;9.916;2023-10-19T10:27:02;47.67;42.71;61.67;;
71628;Laerm;59477;52.374;9.916;2023-10-19T10:29:21;52.34;41.37;63.98;;
71628;Laerm;59477;52.374;9.916;2023-10-19T10:31:43;49.34;43.65;57.97;;
71628;Laerm;59477;52.374;9.916;2023-10-19T10:34:03;48.50;42.85;63.47;;
71628;Laerm;59477;52.374;9.916;2023-10-19T10:36:23;48.47;42.13;63.90;;
71628;Laerm;59477;52.374;9.916;2023-10-19T10:38:42;46.70;42.07;59.65;;
71628;Laerm;59477;52.374;9.916;2023-10-19T10:41:02;46.92;42.20;58.14;;
71628;Laerm;59477;52.374;9.916;2023-10-19T10:43:20;47.66;43.38;54.10;;
71628;Laerm;59477;52.374;9.916;2023-10-19T10:45:40;49.12;44.21;54.90;;
71628;Laerm;59477;52.374;9.916;2023-10-19T10:47:59;47.53;43.12;58.42;;
71628;Laerm;59477;52.374;9.916;2023-10-19T10:50:19;49.11;43.15;58.41;;
71628;Laerm;59477;52.374;9.916;2023-10-19T10:52:39;47.11;42.13;61.53;;
71628;Laerm;59477;52.374;9.916;2023-10-19T10:54:58;48.59;41.51;60.77;;
71628;Laerm;59477;52.374;9.916;2023-10-19T10:57:18;49.28;42.28;62.79;;
71628;Laerm;59477;52.374;9.916;2023-10-19T10:59:37;47.84;41.92;54.61;;
71628;Laerm;59477;52.374;9.916;2023-10-19T11:01:56;45.55;41.91;52.78;;
71628;Laerm;59477;52.374;9.916;2023-10-19T11:04:15;50.04;42.61;59.14;;
71628;Laerm;59477;52.374;9.916;2023-10-19T11:06:51;48.28;41.41;57.22;;
71628;Laerm;59477;52.374;9.916;2023-10-19T11:09:11;48.93;41.79;57.79;;
71628;Laerm;59477;52.374;9.916;2023-10-19T11:11:36;47.78;42.87;60.99;;
71628;Laerm;59477;52.374;9.916;2023-10-19T11:13:55;46.18;41.88;56.76;;
71628;Laerm;59477;52.374;9.916;2023-10-19T11:16:26;45.87;41.19;51.72;;
71628;Laerm;59477;52.374;9.916;2023-10-19T11:18:48;49.58;43.80;57.37;;
71628;Laerm;59477;52.374;9.916;2023-10-19T11:21:09;49.86;42.63;64.15;;
71628;Laerm;59477;52.374;9.916;2023-10-19T11:23:38;48.36;41.66;57.53;;
71628;Laerm;59477;52.374;9.916;2023-10-19T11:25:57;49.68;42.62;67.06;;
71628;Laerm;59477;52.374;9.916;2023-10-19T11:28:16;49.65;42.04;58.20;;
71628;Laerm;59477;52.374;9.916;2023-10-19T11:30:36;46.36;42.32;53.85;;
71628;Laerm;59477;52.374;9.916;2023-10-19T11:32:55;48.96;43.02;61.99;;
71628;Laerm;59477;52.374;9.916;2023-10-19T11:35:20;48.62;41.43;62.17;;
71628;Laerm;59477;52.374;9.916;2023-10-19T11:37:48;50.12;43.88;58.53;;
71628;Laerm;59477;52.374;9.916;2023-10-19T11:40:07;46.88;41.60;52.63;;
71628;Laerm;59477;52.374;9.916;2023-10-19T11:42:26;54.28;42.24;78.86;;
71628;Laerm;59477;52.374;9.916;2023-10-19T11:44:45;47.61;42.60;65.14;;
71628;Laerm;59477;52.374;9.916;2023-10-19T11:47:05;47.73;42.63;60.26;;
71628;Laerm;59477;52.374;9.916;2023-10-19T11:49:23;47.16;42.81;60.38;;
71628;Laerm;59477;52.374;9.916;2023-10-19T11:51:42;47.35;42.78;59.31;;
71628;Laerm;59477;52.374;9.916;2023-10-19T11:54:04;46.72;42.35;58.37;;
71628;Laerm;59477;52.374;9.916;2023-10-19T11:56:23;47.62;42.93;58.37;;
71628;Laerm;59477;52.374;9.916;2023-10-19T11:58:43;48.41;42.89;54.88;;
71628;Laerm;59477;52.374;9.916;2023-10-19T12:01:05;47.31;43.29;53.21;;
71628;Laerm;59477;52.374;9.916;2023-10-19T12:03:27;53.27;42.34;63.90;;
71628;Laerm;59477;52.374;9.916;2023-10-19T12:05:46;46.91;42.15;58.58;;
71628;Laerm;59477;52.374;9.916;2023-10-19T12:08:06;47.54;42.42;59.07;;
71628;Laerm;59477;52.374;9.916;2023-10-19T12:10:25;46.87;42.37;56.74;;
71628;Laerm;59477;52.374;9.916;2023-10-19T12:12:51;46.98;41.99;53.24;;
71628;Laerm;59477;52.374;9.916;2023-10-19T12:15:11;46.43;42.14;63.77;;
71628;Laerm;59477;52.374;9.916;2023-10-19T12:17:31;46.40;42.52;54.65;;
71628;Laerm;59477;52.374;9.916;2023-10-19T12:19:50;49.14;42.09;57.21;;
71628;Laerm;59477;52.374;9.916;2023-10-19T12:22:09;46.98;42.53;56.05;;
71628;Laerm;59477;52.374;9.916;2023-10-19T12:24:28;46.26;41.80;52.59;;
71628;Laerm;59477;52.374;9.916;2023-10-19T12:26:48;47.45;43.05;56.50;;
71628;Laerm;59477;52.374;9.916;2023-10-19T12:29:06;47.83;43.03;55.25;;
71628;Laerm;59477;52.374;9.916;2023-10-19T12:31:29;53.10;44.54;62.17;;
71628;Laerm;59477;52.374;9.916;2023-10-19T12:33:49;51.81;42.52;64.42;;
71628;Laerm;59477;52.374;9.916;2023-10-19T12:36:08;48.09;42.81;58.66;;
71628;Laerm;59477;52.374;9.916;2023-10-19T12:38:46;47.65;42.65;57.40;;
71628;Laerm;59477;52.374;9.916;2023-10-19T12:41:05;48.05;42.80;56.61;;
71628;Laerm;59477;52.374;9.916;2023-10-19T12:43:25;50.74;43.98;62.12;;
71628;Laerm;59477;52.374;9.916;2023-10-19T12:45:45;52.84;44.54;64.10;;
71628;Laerm;59477;52.374;9.916;2023-10-19T12:48:09;48.49;43.60;54.80;;
71628;Laerm;59477;52.374;9.916;2023-10-19T12:50:29;51.93;43.00;63.14;;
71628;Laerm;59477;52.374;9.916;2023-10-19T12:52:49;47.86;43.24;67.00;;
71628;Laerm;59477;52.374;9.916;2023-10-19T12:55:09;48.35;43.88;57.27;;
71628;Laerm;59477;52.374;9.916;2023-10-19T12:57:27;47.08;42.90;52.20;;
71628;Laerm;59477;52.374;9.916;2023-10-19T12:59:46;48.08;43.46;53.58;;
71628;Laerm;59477;52.374;9.916;2023-10-19T13:02:05;48.79;43.23;59.16;;
71628;Laerm;59477;52.374;9.916;2023-10-19T13:04:27;47.33;42.37;56.97;;
71628;Laerm;59477;52.374;9.916;2023-10-19T13:06:50;48.58;43.91;62.37;;
71628;Laerm;59477;52.374;9.916;2023-10-19T13:09:09;47.22;43.22;56.26;;
71628;Laerm;59477;52.374;9.916;2023-10-19T13:11:28;49.50;43.52;57.88;;